sensor_id;sensor_type;location;lat;lon;timestamp;P1;durP1;ratioP1;P2;durP2;ratioP2
83690;SDS011;73671;43.220;0.064;2024-03-25T00:00:09;9.02;;;3.00;;
83690;SDS011;73671;43.220;0.064;2024-03-25T00:02:39;9.30;;;3.58;;
83690;SDS011;73671;43.220;0.064;2024-03-25T00:05:05;6.75;;;2.60;;
83690;SDS011;73671;43.220;0.064;2024-03-25T00:07:34;4.60;;;2.20;;
83690;SDS011;73671;43.220;0.064;2024-03-25T00:10:00;5.55;;;2.30;;
83690;SDS011;73671;43.220;0.064;2024-03-25T00:12:26;3.13;;;1.80;;
83690;SDS011;73671;43.220;0.064;2024-03-25T00:14:52;3.72;;;1.90;;
83690;SDS011;73671;43.220;0.064;2024-03-25T00:17:17;6.00;;;2.40;;
83690;SDS011;73671;43.220;0.064;2024-03-25T00:19:44;4.90;;;2.13;;
83690;SDS011;73671;43.220;0.064;2024-03-25T00:22:15;8.30;;;2.30;;
83690;SDS011;73671;43.220;0.064;2024-03-25T00:24:41;4.78;;;2.15;;
83690;SDS011;73671;43.220;0.064;2024-03-25T00:27:07;10.63;;;3.92;;
83690;SDS011;73671;43.220;0.064;2024-03-25T00:29:32;14.27;;;4.10;;
83690;SDS011;73671;43.220;0.064;2024-03-25T00:31:58;5.85;;;3.13;;
83690;SDS011;73671;43.220;0.064;2024-03-25T00:34:24;4.03;;;2.30;;
83690;SDS011;73671;43.220;0.064;2024-03-25T00:36:49;6.20;;;2.30;;
83690;SDS011;73671;43.220;0.064;2024-03-25T00:39:14;3.05;;;2.10;;
83690;SDS011;73671;43.220;0.064;2024-03-25T00:41:42;2.42;;;2.10;;
83690;SDS011;73671;43.220;0.064;2024-03-25T00:44:12;5.68;;;2.35;;
83690;SDS011;73671;43.220;0.064;2024-03-25T00:46:37;2.22;;;2.03;;
83690;SDS011;73671;43.220;0.064;2024-03-25T00:49:03;3.33;;;2.03;;
83690;SDS011;73671;43.220;0.064;2024-03-25T00:51:28;2.95;;;1.90;;
83690;SDS011;73671;43.220;0.064;2024-03-25T00:53:54;2.13;;;1.90;;
83690;SDS011;73671;43.220;0.064;2024-03-25T00:56:19;3.92;;;2.08;;
83690;SDS011;73671;43.220;0.064;2024-03-25T00:58:45;2.70;;;2.00;;
83690;SDS011;73671;43.220;0.064;2024-03-25T01:01:11;2.92;;;1.73;;
83690;SDS011;73671;43.220;0.064;2024-03-25T01:03:37;3.65;;;1.95;;
83690;SDS011;73671;43.220;0.064;2024-03-25T01:06:02;2.55;;;1.88;;
83690;SDS011;73671;43.220;0.064;2024-03-25T01:08:29;3.35;;;1.83;;
83690;SDS011;73671;43.220;0.064;2024-03-25T01:10:54;2.70;;;1.70;;
83690;SDS011;73671;43.220;0.064;2024-03-25T01:13:20;3.47;;;1.85;;
83690;SDS011;73671;43.220;0.064;2024-03-25T01:15:46;4.65;;;2.10;;
83690;SDS011;73671;43.220;0.064;2024-03-25T01:18:12;4.05;;;2.00;;
83690;SDS011;73671;43.220;0.064;2024-03-25T01:20:37;3.28;;;1.80;;
83690;SDS011;73671;43.220;0.064;2024-03-25T01:23:03;5.82;;;2.00;;
83690;SDS011;73671;43.220;0.064;2024-03-25T01:25:30;2.85;;;2.00;;
83690;SDS011;73671;43.220;0.064;2024-03-25T01:27:55;2.75;;;1.52;;
83690;SDS011;73671;43.220;0.064;2024-03-25T01:30:21;2.78;;;1.88;;
83690;SDS011;73671;43.220;0.064;2024-03-25T01:32:47;4.40;;;1.73;;
83690;SDS011;73671;43.220;0.064;2024-03-25T01:35:13;2.75;;;1.83;;
83690;SDS011;73671;43.220;0.064;2024-03-25T01:37:40;2.40;;;1.80;;
83690;SDS011;73671;43.220;0.064;2024-03-25T01:40:06;4.28;;;1.70;;
83690;SDS011;73671;43.220;0.064;2024-03-25T01:42:33;1.75;;;1.58;;
83690;SDS011;73671;43.220;0.064;2024-03-25T01:44:58;4.18;;;1.90;;
83690;SDS011;73671;43.220;0.064;2024-03-25T01:47:24;5.13;;;1.92;;
83690;SDS011;73671;43.220;0.064;2024-03-25T01:49:50;2.92;;;1.88;;
83690;SDS011;73671;43.220;0.064;2024-03-25T01:52:19;3.05;;;1.80;;
83690;SDS011;73671;43.220;0.064;2024-03-25T01:54:47;4.03;;;2.20;;
83690;SDS011;73671;43.220;0.064;2024-03-25T01:57:14;2.85;;;2.00;;
83690;SDS011;73671;43.220;0.064;2024-03-25T01:59:40;3.35;;;2.05;;
83690;SDS011;73671;43.220;0.064;2024-03-25T02:02:06;2.78;;;1.77;;
83690;SDS011;73671;43.220;0.064;2024-03-25T02:04:32;2.75;;;1.58;;
83690;SDS011;73671;43.220;0.064;2024-03-25T02:06:57;1.63;;;1.52;;
83690;SDS011;73671;43.220;0.064;2024-03-25T02:09:24;4.82;;;1.90;;
83690;SDS011;73671;43.220;0.064;2024-03-25T02:11:52;3.92;;;1.80;;
83690;SDS011;73671;43.220;0.064;2024-03-25T02:14:18;2.78;;;1.90;;
83690;SDS011;73671;43.220;0.064;2024-03-25T02:16:44;4.20;;;1.70;;
83690;SDS011;73671;43.220;0.064;2024-03-25T02:19:09;3.38;;;1.73;;
83690;SDS011;73671;43.220;0.064;2024-03-25T02:21:38;2.47;;;1.80;;
83690;SDS011;73671;43.220;0.064;2024-03-25T02:24:04;2.05;;;1.55;;
83690;SDS011;73671;43.220;0.064;2024-03-25T02:26:33;6.93;;;2.38;;
83690;SDS011;73671;43.220;0.064;2024-03-25T02:28:59;2.05;;;1.60;;
83690;SDS011;73671;43.220;0.064;2024-03-25T02:31:24;3.00;;;1.80;;
83690;SDS011;73671;43.220;0.064;2024-03-25T02:33:50;4.13;;;1.77;;
83690;SDS011;73671;43.220;0.064;2024-03-25T02:36:15;3.35;;;1.77;;
83690;SDS011;73671;43.220;0.064;2024-03-25T02:38:40;3.75;;;1.90;;
83690;SDS011;73671;43.220;0.064;2024-03-25T02:41:06;3.25;;;1.95;;
83690;SDS011;73671;43.220;0.064;2024-03-25T02:43:33;2.00;;;1.90;;
83690;SDS011;73671;43.220;0.064;2024-03-25T02:45:59;3.78;;;1.98;;
83690;SDS011;73671;43.220;0.064;2024-03-25T02:48:25;2.67;;;1.70;;
83690;SDS011;73671;43.220;0.064;2024-03-25T02:50:50;4.93;;;1.90;;
83690;SDS011;73671;43.220;0.064;2024-03-25T02:53:16;4.00;;;1.88;;
83690;SDS011;73671;43.220;0.064;2024-03-25T02:55:41;4.07;;;1.95;;
83690;SDS011;73671;43.220;0.064;2024-03-25T02:58:06;2.38;;;1.80;;
83690;SDS011;73671;43.220;0.064;2024-03-25T03:00:32;2.95;;;1.90;;
83690;SDS011;73671;43.220;0.064;2024-03-25T03:02:57;2.08;;;1.88;;
83690;SDS011;73671;43.220;0.064;2024-03-25T03:05:23;3.60;;;2.10;;
83690;SDS011;73671;43.220;0.064;2024-03-25T03:07:48;3.47;;;1.80;;
83690;SDS011;73671;43.220;0.064;2024-03-25T03:10:13;2.03;;;1.70;;
83690;SDS011;73671;43.220;0.064;2024-03-25T03:12:41;2.78;;;1.60;;
83690;SDS011;73671;43.220;0.064;2024-03-25T03:15:06;3.88;;;1.80;;
83690;SDS011;73671;43.220;0.064;2024-03-25T03:17:32;4.40;;;1.70;;
83690;SDS011;73671;43.220;0.064;2024-03-25T03:19:57;2.78;;;1.50;;
83690;SDS011;73671;43.220;0.064;2024-03-25T03:22:23;2.17;;;1.70;;
83690;SDS011;73671;43.220;0.064;2024-03-25T03:24:48;4.65;;;1.70;;
83690;SDS011;73671;43.220;0.064;2024-03-25T03:27:13;2.33;;;1.73;;
83690;SDS011;73671;43.220;0.064;2024-03-25T03:29:39;1.85;;;1.60;;
83690;SDS011;73671;43.220;0.064;2024-03-25T03:32:04;3.22;;;1.70;;
83690;SDS011;73671;43.220;0.064;2024-03-25T03:34:30;2.72;;;1.77;;
83690;SDS011;73671;43.220;0.064;2024-03-25T03:36:55;3.42;;;1.60;;
83690;SDS011;73671;43.220;0.064;2024-03-25T03:39:21;3.45;;;1.52;;
83690;SDS011;73671;43.220;0.064;2024-03-25T03:41:46;1.73;;;1.63;;
83690;SDS011;73671;43.220;0.064;2024-03-25T03:44:11;5.38;;;1.70;;
83690;SDS011;73671;43.220;0.064;2024-03-25T03:46:39;2.63;;;1.60;;
83690;SDS011;73671;43.220;0.064;2024-03-25T03:49:05;1.60;;;1.50;;
83690;SDS011;73671;43.220;0.064;2024-03-25T03:51:30;1.80;;;1.70;;
83690;SDS011;73671;43.220;0.064;2024-03-25T03:53:56;3.92;;;1.60;;
83690;SDS011;73671;43.220;0.064;2024-03-25T03:56:22;3.08;;;1.58;;
83690;SDS011;73671;43.220;0.064;2024-03-25T03:58:47;2.25;;;1.50;;
83690;SDS011;73671;43.220;0.064;2024-03-25T04:01:17;1.60;;;1.50;;
83690;SDS011;73671;43.220;0.064;2024-03-25T04:03:43;2.53;;;1.42;;
83690;SDS011;73671;43.220;0.064;2024-03-25T04:06:09;2.17;;;1.70;;
83690;SDS011;73671;43.220;0.064;2024-03-25T04:08:39;4.45;;;1.85;;
83690;SDS011;73671;43.220;0.064;2024-03-25T04:11:05;2.80;;;1.65;;
83690;SDS011;73671;43.220;0.064;2024-03-25T04:13:31;1.67;;;1.52;;
83690;SDS011;73671;43.220;0.064;2024-03-25T04:16:00;1.70;;;1.55;;
83690;SDS011;73671;43.220;0.064;2024-03-25T04:18:30;2.70;;;1.58;;
83690;SDS011;73671;43.220;0.064;2024-03-25T04:20:56;2.95;;;1.60;;
83690;SDS011;73671;43.220;0.064;2024-03-25T04:23:22;2.50;;;1.50;;
83690;SDS011;73671;43.220;0.064;2024-03-25T04:25:48;7.32;;;2.50;;
83690;SDS011;73671;43.220;0.064;2024-03-25T04:28:13;1.77;;;1.52;;
83690;SDS011;73671;43.220;0.064;2024-03-25T04:30:39;3.30;;;1.75;;
83690;SDS011;73671;43.220;0.064;2024-03-25T04:33:04;2.08;;;1.65;;
83690;SDS011;73671;43.220;0.064;2024-03-25T04:35:30;5.15;;;1.73;;
83690;SDS011;73671;43.220;0.064;2024-03-25T04:37:55;3.33;;;1.70;;
83690;SDS011;73671;43.220;0.064;2024-03-25T04:40:21;2.97;;;1.73;;
83690;SDS011;73671;43.220;0.064;2024-03-25T04:42:47;3.92;;;1.90;;
83690;SDS011;73671;43.220;0.064;2024-03-25T04:45:12;3.92;;;1.80;;
83690;SDS011;73671;43.220;0.064;2024-03-25T04:47:38;3.40;;;1.70;;
83690;SDS011;73671;43.220;0.064;2024-03-25T04:50:04;3.30;;;1.83;;
83690;SDS011;73671;43.220;0.064;2024-03-25T04:52:30;1.60;;;1.50;;
83690;SDS011;73671;43.220;0.064;2024-03-25T04:54:55;2.33;;;1.60;;
83690;SDS011;73671;43.220;0.064;2024-03-25T04:57:21;4.30;;;1.95;;
83690;SDS011;73671;43.220;0.064;2024-03-25T04:59:46;3.03;;;1.88;;
83690;SDS011;73671;43.220;0.064;2024-03-25T05:02:11;7.00;;;1.88;;
83690;SDS011;73671;43.220;0.064;2024-03-25T05:04:37;3.17;;;1.95;;
83690;SDS011;73671;43.220;0.064;2024-03-25T05:07:02;2.05;;;1.70;;
83690;SDS011;73671;43.220;0.064;2024-03-25T05:09:28;3.00;;;1.80;;
83690;SDS011;73671;43.220;0.064;2024-03-25T05:11:53;6.28;;;1.90;;
83690;SDS011;73671;43.220;0.064;2024-03-25T05:14:19;1.85;;;1.60;;
83690;SDS011;73671;43.220;0.064;2024-03-25T05:16:44;2.85;;;1.88;;
83690;SDS011;73671;43.220;0.064;2024-03-25T05:19:09;5.85;;;2.20;;
83690;SDS011;73671;43.220;0.064;2024-03-25T05:21:35;4.07;;;1.80;;
83690;SDS011;73671;43.220;0.064;2024-03-25T05:24:00;3.70;;;1.60;;
83690;SDS011;73671;43.220;0.064;2024-03-25T05:26:26;2.80;;;1.75;;
83690;SDS011;73671;43.220;0.064;2024-03-25T05:28:54;2.83;;;1.70;;
83690;SDS011;73671;43.220;0.064;2024-03-25T05:31:20;5.07;;;2.03;;
83690;SDS011;73671;43.220;0.064;2024-03-25T05:33:46;2.97;;;1.83;;
83690;SDS011;73671;43.220;0.064;2024-03-25T05:36:12;2.60;;;1.50;;
83690;SDS011;73671;43.220;0.064;2024-03-25T05:38:38;3.25;;;1.80;;
83690;SDS011;73671;43.220;0.064;2024-03-25T05:41:04;2.63;;;1.80;;
83690;SDS011;73671;43.220;0.064;2024-03-25T05:43:29;5.15;;;2.10;;
83690;SDS011;73671;43.220;0.064;2024-03-25T05:45:55;2.35;;;1.80;;
83690;SDS011;73671;43.220;0.064;2024-03-25T05:48:21;4.03;;;2.15;;
83690;SDS011;73671;43.220;0.064;2024-03-25T05:51:00;3.97;;;2.05;;
83690;SDS011;73671;43.220;0.064;2024-03-25T05:53:26;2.58;;;1.90;;
83690;SDS011;73671;43.220;0.064;2024-03-25T05:55:52;2.75;;;1.90;;
83690;SDS011;73671;43.220;0.064;2024-03-25T05:58:17;4.00;;;2.40;;
83690;SDS011;73671;43.220;0.064;2024-03-25T06:00:43;2.17;;;1.85;;
83690;SDS011;73671;43.220;0.064;2024-03-25T06:03:08;2.63;;;2.05;;
83690;SDS011;73671;43.220;0.064;2024-03-25T06:05:33;4.00;;;2.00;;
83690;SDS011;73671;43.220;0.064;2024-03-25T06:07:59;2.85;;;2.15;;
83690;SDS011;73671;43.220;0.064;2024-03-25T06:10:24;5.22;;;2.13;;
83690;SDS011;73671;43.220;0.064;2024-03-25T06:12:50;6.68;;;2.42;;
83690;SDS011;73671;43.220;0.064;2024-03-25T06:15:15;7.13;;;2.33;;
83690;SDS011;73671;43.220;0.064;2024-03-25T06:17:40;6.18;;;2.25;;
83690;SDS011;73671;43.220;0.064;2024-03-25T06:20:06;2.58;;;2.10;;
83690;SDS011;73671;43.220;0.064;2024-03-25T06:22:32;5.60;;;2.05;;
83690;SDS011;73671;43.220;0.064;2024-03-25T06:24:58;3.50;;;2.05;;
83690;SDS011;73671;43.220;0.064;2024-03-25T06:27:23;5.38;;;2.05;;
83690;SDS011;73671;43.220;0.064;2024-03-25T06:29:49;6.00;;;2.05;;
83690;SDS011;73671;43.220;0.064;2024-03-25T06:32:34;6.07;;;2.25;;
83690;SDS011;73671;43.220;0.064;2024-03-25T06:35:18;3.75;;;2.55;;
83690;SDS011;73671;43.220;0.064;2024-03-25T06:37:44;4.13;;;2.15;;
83690;SDS011;73671;43.220;0.064;2024-03-25T06:40:09;3.90;;;1.95;;
83690;SDS011;73671;43.220;0.064;2024-03-25T06:42:35;2.80;;;2.10;;
83690;SDS011;73671;43.220;0.064;2024-03-25T06:45:00;3.75;;;1.98;;
83690;SDS011;73671;43.220;0.064;2024-03-25T06:47:26;4.97;;;2.00;;
83690;SDS011;73671;43.220;0.064;2024-03-25T06:49:51;3.78;;;2.17;;
83690;SDS011;73671;43.220;0.064;2024-03-25T06:52:17;4.57;;;2.30;;
83690;SDS011;73671;43.220;0.064;2024-03-25T06:54:42;6.28;;;1.85;;
83690;SDS011;73671;43.220;0.064;2024-03-25T06:57:07;3.50;;;2.30;;
83690;SDS011;73671;43.220;0.064;2024-03-25T06:59:33;4.35;;;1.98;;
83690;SDS011;73671;43.220;0.064;2024-03-25T07:02:01;3.70;;;2.00;;
83690;SDS011;73671;43.220;0.064;2024-03-25T07:04:26;2.03;;;1.80;;
83690;SDS011;73671;43.220;0.064;2024-03-25T07:06:52;3.00;;;2.20;;
83690;SDS011;73671;43.220;0.064;2024-03-25T07:09:17;3.10;;;1.90;;
83690;SDS011;73671;43.220;0.064;2024-03-25T07:11:42;3.80;;;2.13;;
83690;SDS011;73671;43.220;0.064;2024-03-25T07:14:11;4.35;;;2.30;;
83690;SDS011;73671;43.220;0.064;2024-03-25T07:16:37;3.35;;;2.10;;
83690;SDS011;73671;43.220;0.064;2024-03-25T07:19:02;3.00;;;2.00;;
83690;SDS011;73671;43.220;0.064;2024-03-25T07:21:28;4.15;;;1.90;;
83690;SDS011;73671;43.220;0.064;2024-03-25T07:23:54;7.68;;;2.17;;
83690;SDS011;73671;43.220;0.064;2024-03-25T07:26:19;5.97;;;2.60;;
83690;SDS011;73671;43.220;0.064;2024-03-25T07:28:44;4.38;;;2.08;;
83690;SDS011;73671;43.220;0.064;2024-03-25T07:31:10;3.58;;;2.00;;
83690;SDS011;73671;43.220;0.064;2024-03-25T07:33:35;2.08;;;1.83;;
83690;SDS011;73671;43.220;0.064;2024-03-25T07:36:01;2.92;;;1.90;;
83690;SDS011;73671;43.220;0.064;2024-03-25T07:38:26;3.65;;;1.55;;
83690;SDS011;73671;43.220;0.064;2024-03-25T07:40:52;3.42;;;1.60;;
83690;SDS011;73671;43.220;0.064;2024-03-25T07:43:17;2.05;;;1.83;;
83690;SDS011;73671;43.220;0.064;2024-03-25T07:45:43;5.97;;;2.13;;
83690;SDS011;73671;43.220;0.064;2024-03-25T07:48:08;5.18;;;1.90;;
83690;SDS011;73671;43.220;0.064;2024-03-25T07:50:33;3.88;;;2.00;;
83690;SDS011;73671;43.220;0.064;2024-03-25T07:52:59;4.43;;;2.30;;
83690;SDS011;73671;43.220;0.064;2024-03-25T07:55:24;5.72;;;2.03;;
83690;SDS011;73671;43.220;0.064;2024-03-25T07:57:50;4.72;;;2.08;;
83690;SDS011;73671;43.220;0.064;2024-03-25T08:00:15;4.57;;;2.20;;
83690;SDS011;73671;43.220;0.064;2024-03-25T08:02:41;3.88;;;1.95;;
83690;SDS011;73671;43.220;0.064;2024-03-25T08:05:06;4.05;;;2.15;;
83690;SDS011;73671;43.220;0.064;2024-03-25T08:07:32;5.07;;;1.90;;
83690;SDS011;73671;43.220;0.064;2024-03-25T08:09:57;5.72;;;1.88;;
83690;SDS011;73671;43.220;0.064;2024-03-25T08:12:22;1.75;;;1.60;;
83690;SDS011;73671;43.220;0.064;2024-03-25T08:14:48;2.20;;;1.58;;
83690;SDS011;73671;43.220;0.064;2024-03-25T08:17:13;2.50;;;1.60;;
83690;SDS011;73671;43.220;0.064;2024-03-25T08:19:38;2.72;;;1.80;;
83690;SDS011;73671;43.220;0.064;2024-03-25T08:22:04;3.22;;;1.70;;
83690;SDS011;73671;43.220;0.064;2024-03-25T08:24:29;4.30;;;1.95;;
83690;SDS011;73671;43.220;0.064;2024-03-25T08:26:55;2.85;;;1.40;;
83690;SDS011;73671;43.220;0.064;2024-03-25T08:29:20;5.00;;;1.80;;
83690;SDS011;73671;43.220;0.064;2024-03-25T08:31:45;4.72;;;1.83;;
83690;SDS011;73671;43.220;0.064;2024-03-25T08:34:11;6.10;;;2.50;;
83690;SDS011;73671;43.220;0.064;2024-03-25T08:36:36;2.67;;;1.48;;
83690;SDS011;73671;43.220;0.064;2024-03-25T08:39:01;2.25;;;1.88;;
83690;SDS011;73671;43.220;0.064;2024-03-25T08:41:27;3.42;;;1.77;;
83690;SDS011;73671;43.220;0.064;2024-03-25T08:43:52;2.38;;;1.77;;
83690;SDS011;73671;43.220;0.064;2024-03-25T08:46:18;4.00;;;1.80;;
83690;SDS011;73671;43.220;0.064;2024-03-25T08:48:43;3.13;;;2.08;;
83690;SDS011;73671;43.220;0.064;2024-03-25T08:51:09;3.33;;;2.05;;
83690;SDS011;73671;43.220;0.064;2024-03-25T08:53:34;5.95;;;1.65;;
83690;SDS011;73671;43.220;0.064;2024-03-25T08:55:59;7.07;;;2.08;;
83690;SDS011;73671;43.220;0.064;2024-03-25T08:58:25;3.92;;;2.00;;
83690;SDS011;73671;43.220;0.064;2024-03-25T09:00:50;3.60;;;1.80;;
83690;SDS011;73671;43.220;0.064;2024-03-25T09:03:16;4.88;;;1.80;;
83690;SDS011;73671;43.220;0.064;2024-03-25T09:05:41;3.22;;;1.65;;
83690;SDS011;73671;43.220;0.064;2024-03-25T09:08:07;4.47;;;1.80;;
83690;SDS011;73671;43.220;0.064;2024-03-25T09:10:32;5.28;;;1.90;;
83690;SDS011;73671;43.220;0.064;2024-03-25T09:13:16;6.35;;;1.70;;
83690;SDS011;73671;43.220;0.064;2024-03-25T09:15:42;3.17;;;1.70;;
83690;SDS011;73671;43.220;0.064;2024-03-25T09:18:07;6.00;;;1.80;;
83690;SDS011;73671;43.220;0.064;2024-03-25T09:20:32;5.28;;;1.35;;
83690;SDS011;73671;43.220;0.064;2024-03-25T09:22:58;1.77;;;1.55;;
83690;SDS011;73671;43.220;0.064;2024-03-25T09:25:23;3.40;;;1.70;;
83690;SDS011;73671;43.220;0.064;2024-03-25T09:27:49;3.28;;;1.60;;
83690;SDS011;73671;43.220;0.064;2024-03-25T09:30:15;3.10;;;1.80;;
83690;SDS011;73671;43.220;0.064;2024-03-25T09:32:41;8.07;;;1.75;;
83690;SDS011;73671;43.220;0.064;2024-03-25T09:35:07;2.50;;;1.50;;
83690;SDS011;73671;43.220;0.064;2024-03-25T09:37:36;5.05;;;1.55;;
83690;SDS011;73671;43.220;0.064;2024-03-25T09:40:02;4.05;;;1.50;;
83690;SDS011;73671;43.220;0.064;2024-03-25T09:42:48;4.28;;;1.77;;
83690;SDS011;73671;43.220;0.064;2024-03-25T09:45:16;3.75;;;1.48;;
83690;SDS011;73671;43.220;0.064;2024-03-25T09:47:45;2.55;;;1.50;;
83690;SDS011;73671;43.220;0.064;2024-03-25T09:50:12;2.90;;;1.60;;
83690;SDS011;73671;43.220;0.064;2024-03-25T09:52:39;4.25;;;1.60;;
83690;SDS011;73671;43.220;0.064;2024-03-25T09:55:05;2.15;;;1.20;;
83690;SDS011;73671;43.220;0.064;2024-03-25T09:57:31;2.80;;;1.58;;
83690;SDS011;73671;43.220;0.064;2024-03-25T09:59:57;2.42;;;1.40;;
83690;SDS011;73671;43.220;0.064;2024-03-25T10:02:23;4.32;;;1.60;;
83690;SDS011;73671;43.220;0.064;2024-03-25T10:04:51;8.52;;;1.67;;
83690;SDS011;73671;43.220;0.064;2024-03-25T10:07:24;3.03;;;1.52;;
83690;SDS011;73671;43.220;0.064;2024-03-25T10:09:53;2.00;;;1.50;;
83690;SDS011;73671;43.220;0.064;2024-03-25T10:12:18;3.70;;;1.50;;
83690;SDS011;73671;43.220;0.064;2024-03-25T10:14:45;3.33;;;1.40;;
83690;SDS011;73671;43.220;0.064;2024-03-25T10:17:10;3.15;;;1.35;;
83690;SDS011;73671;43.220;0.064;2024-03-25T10:19:36;1.42;;;1.13;;
83690;SDS011;73671;43.220;0.064;2024-03-25T10:22:05;4.22;;;1.40;;
83690;SDS011;73671;43.220;0.064;2024-03-25T10:24:38;2.53;;;1.50;;
83690;SDS011;73671;43.220;0.064;2024-03-25T10:27:22;1.40;;;1.20;;
83690;SDS011;73671;43.220;0.064;2024-03-25T10:29:52;3.25;;;1.40;;
83690;SDS011;73671;43.220;0.064;2024-03-25T10:32:20;1.90;;;1.42;;
83690;SDS011;73671;43.220;0.064;2024-03-25T10:34:45;4.45;;;1.65;;
83690;SDS011;73671;43.220;0.064;2024-03-25T10:37:11;2.63;;;1.58;;
83690;SDS011;73671;43.220;0.064;2024-03-25T10:39:47;3.38;;;1.60;;
83690;SDS011;73671;43.220;0.064;2024-03-25T10:42:18;3.40;;;1.60;;
83690;SDS011;73671;43.220;0.064;2024-03-25T10:44:45;4.35;;;2.30;;
83690;SDS011;73671;43.220;0.064;2024-03-25T10:47:14;3.22;;;1.73;;
83690;SDS011;73671;43.220;0.064;2024-03-25T10:49:51;3.60;;;1.88;;
83690;SDS011;73671;43.220;0.064;2024-03-25T10:52:21;3.40;;;1.70;;
83690;SDS011;73671;43.220;0.064;2024-03-25T10:54:48;2.90;;;1.67;;
83690;SDS011;73671;43.220;0.064;2024-03-25T10:57:14;6.70;;;1.90;;
83690;SDS011;73671;43.220;0.064;2024-03-25T10:59:44;2.75;;;1.60;;
83690;SDS011;73671;43.220;0.064;2024-03-25T11:02:10;4.30;;;1.70;;
83690;SDS011;73671;43.220;0.064;2024-03-25T11:04:36;4.75;;;1.75;;
83690;SDS011;73671;43.220;0.064;2024-03-25T11:07:09;5.57;;;2.38;;
83690;SDS011;73671;43.220;0.064;2024-03-25T11:09:36;5.72;;;1.90;;
83690;SDS011;73671;43.220;0.064;2024-03-25T11:12:01;2.83;;;1.48;;
83690;SDS011;73671;43.220;0.064;2024-03-25T11:14:28;3.30;;;1.42;;
83690;SDS011;73671;43.220;0.064;2024-03-25T11:16:54;2.40;;;1.52;;
83690;SDS011;73671;43.220;0.064;2024-03-25T11:19:20;3.50;;;1.67;;
83690;SDS011;73671;43.220;0.064;2024-03-25T11:21:50;4.43;;;1.50;;
83690;SDS011;73671;43.220;0.064;2024-03-25T11:24:25;3.35;;;1.40;;
83690;SDS011;73671;43.220;0.064;2024-03-25T11:26:52;3.42;;;1.40;;
83690;SDS011;73671;43.220;0.064;2024-03-25T11:29:18;3.22;;;1.40;;
83690;SDS011;73671;43.220;0.064;2024-03-25T11:31:43;4.35;;;1.63;;
83690;SDS011;73671;43.220;0.064;2024-03-25T11:34:10;3.55;;;1.55;;
83690;SDS011;73671;43.220;0.064;2024-03-25T11:36:35;4.15;;;1.52;;
83690;SDS011;73671;43.220;0.064;2024-03-25T11:39:01;3.63;;;1.98;;
83690;SDS011;73671;43.220;0.064;2024-03-25T11:41:34;3.58;;;1.85;;
83690;SDS011;73671;43.220;0.064;2024-03-25T11:44:04;4.15;;;1.92;;
83690;SDS011;73671;43.220;0.064;2024-03-25T11:46:30;3.78;;;2.00;;
83690;SDS011;73671;43.220;0.064;2024-03-25T11:48:55;3.05;;;1.65;;
83690;SDS011;73671;43.220;0.064;2024-03-25T11:51:21;4.50;;;1.60;;
83690;SDS011;73671;43.220;0.064;2024-03-25T11:53:46;5.57;;;1.95;;
83690;SDS011;73671;43.220;0.064;2024-03-25T11:56:12;2.67;;;1.70;;
83690;SDS011;73671;43.220;0.064;2024-03-25T11:58:38;3.08;;;1.80;;
83690;SDS011;73671;43.220;0.064;2024-03-25T12:01:04;3.92;;;1.70;;
83690;SDS011;73671;43.220;0.064;2024-03-25T12:03:29;3.85;;;1.90;;
83690;SDS011;73671;43.220;0.064;2024-03-25T12:05:55;3.88;;;1.92;;
83690;SDS011;73671;43.220;0.064;2024-03-25T12:08:21;3.42;;;1.88;;
83690;SDS011;73671;43.220;0.064;2024-03-25T12:10:50;5.28;;;1.90;;
83690;SDS011;73671;43.220;0.064;2024-03-25T12:13:35;4.82;;;1.83;;
83690;SDS011;73671;43.220;0.064;2024-03-25T12:16:06;3.58;;;1.60;;
83690;SDS011;73671;43.220;0.064;2024-03-25T12:18:33;1.98;;;1.70;;
83690;SDS011;73671;43.220;0.064;2024-03-25T12:20:59;3.75;;;1.90;;
83690;SDS011;73671;43.220;0.064;2024-03-25T12:23:28;4.28;;;1.83;;
83690;SDS011;73671;43.220;0.064;2024-03-25T12:25:55;3.42;;;1.90;;
83690;SDS011;73671;43.220;0.064;2024-03-25T12:28:21;2.60;;;1.63;;
83690;SDS011;73671;43.220;0.064;2024-03-25T12:30:50;2.55;;;1.63;;
83690;SDS011;73671;43.220;0.064;2024-03-25T12:33:17;2.50;;;2.03;;
83690;SDS011;73671;43.220;0.064;2024-03-25T12:35:45;5.60;;;2.10;;
83690;SDS011;73671;43.220;0.064;2024-03-25T12:38:26;2.90;;;1.65;;
83690;SDS011;73671;43.220;0.064;2024-03-25T12:41:09;3.30;;;1.70;;
83690;SDS011;73671;43.220;0.064;2024-03-25T12:43:36;3.03;;;1.85;;
83690;SDS011;73671;43.220;0.064;2024-03-25T12:46:07;6.07;;;1.95;;
83690;SDS011;73671;43.220;0.064;2024-03-25T12:48:33;4.78;;;1.52;;
83690;SDS011;73671;43.220;0.064;2024-03-25T12:50:59;6.53;;;2.25;;
83690;SDS011;73671;43.220;0.064;2024-03-25T12:53:25;3.10;;;1.90;;
83690;SDS011;73671;43.220;0.064;2024-03-25T12:55:51;2.42;;;1.70;;
83690;SDS011;73671;43.220;0.064;2024-03-25T12:58:17;6.10;;;1.83;;
83690;SDS011;73671;43.220;0.064;2024-03-25T13:00:42;4.63;;;1.88;;
83690;SDS011;73671;43.220;0.064;2024-03-25T13:03:08;3.10;;;1.90;;
83690;SDS011;73671;43.220;0.064;2024-03-25T13:05:34;3.60;;;2.10;;
83690;SDS011;73671;43.220;0.064;2024-03-25T13:08:00;4.95;;;1.70;;
83690;SDS011;73671;43.220;0.064;2024-03-25T13:10:26;5.40;;;1.60;;
83690;SDS011;73671;43.220;0.064;2024-03-25T13:12:53;2.47;;;1.73;;
83690;SDS011;73671;43.220;0.064;2024-03-25T13:15:18;4.60;;;1.67;;
83690;SDS011;73671;43.220;0.064;2024-03-25T13:17:43;3.28;;;1.77;;
83690;SDS011;73671;43.220;0.064;2024-03-25T13:20:09;3.33;;;1.73;;
83690;SDS011;73671;43.220;0.064;2024-03-25T13:22:35;2.20;;;1.55;;
83690;SDS011;73671;43.220;0.064;2024-03-25T13:25:00;2.92;;;1.90;;
83690;SDS011;73671;43.220;0.064;2024-03-25T13:27:25;2.40;;;1.65;;
83690;SDS011;73671;43.220;0.064;2024-03-25T13:29:51;6.22;;;1.88;;
83690;SDS011;73671;43.220;0.064;2024-03-25T13:32:18;4.55;;;1.90;;
83690;SDS011;73671;43.220;0.064;2024-03-25T13:34:44;2.63;;;1.70;;
83690;SDS011;73671;43.220;0.064;2024-03-25T13:37:09;2.92;;;1.52;;
83690;SDS011;73671;43.220;0.064;2024-03-25T13:39:35;3.72;;;1.60;;
83690;SDS011;73671;43.220;0.064;2024-03-25T13:42:00;3.83;;;1.95;;
83690;SDS011;73671;43.220;0.064;2024-03-25T13:44:27;5.18;;;1.90;;
83690;SDS011;73671;43.220;0.064;2024-03-25T13:46:53;4.10;;;1.95;;
83690;SDS011;73671;43.220;0.064;2024-03-25T13:49:18;4.18;;;2.00;;
83690;SDS011;73671;43.220;0.064;2024-03-25T13:51:45;4.47;;;2.20;;
83690;SDS011;73671;43.220;0.064;2024-03-25T13:54:11;2.03;;;1.65;;
83690;SDS011;73671;43.220;0.064;2024-03-25T13:56:36;2.92;;;1.80;;
83690;SDS011;73671;43.220;0.064;2024-03-25T13:59:02;5.13;;;1.65;;
83690;SDS011;73671;43.220;0.064;2024-03-25T14:01:27;7.03;;;1.95;;
83690;SDS011;73671;43.220;0.064;2024-03-25T14:03:53;3.33;;;2.10;;
83690;SDS011;73671;43.220;0.064;2024-03-25T14:06:18;3.83;;;1.88;;
83690;SDS011;73671;43.220;0.064;2024-03-25T14:08:44;4.13;;;1.75;;
83690;SDS011;73671;43.220;0.064;2024-03-25T14:11:10;2.08;;;1.70;;
83690;SDS011;73671;43.220;0.064;2024-03-25T14:13:35;2.25;;;1.77;;
83690;SDS011;73671;43.220;0.064;2024-03-25T14:16:01;3.53;;;1.92;;
83690;SDS011;73671;43.220;0.064;2024-03-25T14:18:27;2.35;;;1.80;;
83690;SDS011;73671;43.220;0.064;2024-03-25T14:20:52;8.02;;;1.90;;
83690;SDS011;73671;43.220;0.064;2024-03-25T14:23:18;2.95;;;1.90;;
83690;SDS011;73671;43.220;0.064;2024-03-25T14:25:43;4.43;;;2.30;;
83690;SDS011;73671;43.220;0.064;2024-03-25T14:28:09;2.92;;;2.30;;
83690;SDS011;73671;43.220;0.064;2024-03-25T14:30:35;3.25;;;1.95;;
83690;SDS011;73671;43.220;0.064;2024-03-25T14:33:00;2.85;;;2.03;;
83690;SDS011;73671;43.220;0.064;2024-03-25T14:35:25;4.10;;;2.13;;
83690;SDS011;73671;43.220;0.064;2024-03-25T14:37:51;2.45;;;1.80;;
83690;SDS011;73671;43.220;0.064;2024-03-25T14:40:16;5.10;;;2.53;;
83690;SDS011;73671;43.220;0.064;2024-03-25T14:42:42;4.70;;;2.10;;